Time;durP1;ratioP1;P1;durP2;ratioP2;P2;SDS_P1;SDS_P2;PMS_P1;PMS_P2;Temp;Humidity;BMP_temperature;BMP_pressure;BME280_temperature;BME280_humidity;BME280_pressure;Samples;Min_cycle;Max_cycle;Signal;HPM_P1;HPM_P2
2021/09/11 00:01:41;;;;;;;;;;;;;;;11.70;59.24;99858.94;5095008;28;933;-50
2021/09/11 00:04:08;;;;;;;;;;;;;;;11.74;59.19;99854.94;5094937;28;1878;-49
2021/09/11 00:06:34;;;;;;;;;;;;;;;11.80;58.96;99858.84;5095269;28;959;-50
2021/09/11 00:09:00;;;;;;;;;;;;;;;11.85;58.56;99852.84;5095041;28;822;-51
2021/09/11 00:11:27;;;;;;;;;;;;;;;11.89;58.72;99849.31;5094905;28;991;-49
2021/09/11 00:13:53;;;;;;;;;;;;;;;11.81;58.51;99846.56;5094978;28;869;-53
2021/09/11 00:16:20;;;;;;;;;;;;;;;11.73;58.63;99844.28;5095221;28;956;-53
2021/09/11 00:18:46;;;;;;;;;;;;;;;11.60;59.36;99844.75;5076720;28;830;-52
2021/09/11 00:21:13;;;;;;;;;;;;;;;11.52;59.72;99834.16;5076607;28;842;-52
2021/09/11 00:23:40;;;;;;;;;;;;;;;11.43;59.97;99838.19;5094529;28;1886;-51
2021/09/11 00:26:07;;;;;;;;;;;;;;;11.36;60.25;99837.47;5094530;28;798;-51
2021/09/11 00:28:33;;;;;;;;;;;;;;;11.28;60.25;99836.72;5094367;28;1425;-52
2021/09/11 00:31:00;;;;;;;;;;;;;;;11.16;60.60;99828.88;5094632;28;842;-53
2021/09/11 00:33:27;;;;;;;;;;;;;;;11.07;60.82;99828.56;5094571;28;864;-51
2021/09/11 00:35:53;;;;;;;;;;;;;;;10.92;60.96;99825.09;5094498;28;890;-51
2021/09/11 00:38:20;;;;;;;;;;;;;;;10.74;61.33;99825.22;5094450;28;909;-51
2021/09/11 00:40:46;;;;;;;;;;;;;;;10.59;62.27;99818.97;5094578;28;897;-53
2021/09/11 00:43:19;;;;;;;;;;;;;;;10.43;62.71;99819.41;5095181;28;845;-50
2021/09/11 00:45:45;;;;;;;;;;;;;;;10.32;63.20;99816.69;5094285;28;1918;-50
2021/09/11 00:48:11;;;;;;;;;;;;;;;10.33;63.27;99831.31;5094153;28;862;-49
2021/09/11 00:50:38;;;;;;;;;;;;;;;10.40;62.93;99821.00;5094264;28;807;-52
2021/09/11 00:53:05;;;;;;;;;;;;;;;10.41;62.82;99822.59;5094069;28;861;-53
2021/09/11 00:55:32;;;;;;;;;;;;;;;10.44;63.10;99825.75;5075928;28;847;-53
2021/09/11 00:57:58;;;;;;;;;;;;;;;10.41;62.77;99827.31;5094407;28;888;-50
2021/09/11 01:00:26;;;;;;;;;;;;;;;10.27;63.38;99825.38;5076085;28;814;-54
2021/09/11 01:02:52;;;;;;;;;;;;;;;10.19;63.86;99829.34;5074466;28;835;-54
2021/09/11 01:05:19;;;;;;;;;;;;;;;10.12;63.95;99821.88;5093908;28;1963;-52
2021/09/11 01:07:46;;;;;;;;;;;;;;;10.10;64.00;99824.25;5093904;28;854;-50
2021/09/11 01:10:13;;;;;;;;;;;;;;;10.06;64.26;99820.69;5093769;28;1041;-51
2021/09/11 01:12:40;;;;;;;;;;;;;;;10.02;64.13;99823.47;5093704;28;874;-53
2021/09/11 01:15:08;;;;;;;;;;;;;;;10.04;64.37;99823.06;5093838;28;897;-52
2021/09/11 01:17:36;;;;;;;;;;;;;;;10.05;64.36;99821.09;5093617;28;916;-53
2021/09/11 01:20:03;;;;;;;;;;;;;;;10.07;64.25;99827.00;5093624;28;881;-54
2021/09/11 01:22:29;;;;;;;;;;;;;;;10.12;64.19;99829.38;5093612;28;1212;-54
2021/09/11 01:25:00;;;;;;;;;;;;;;;10.15;63.94;99825.81;5093493;28;1858;-51
2021/09/11 01:27:28;;;;;;;;;;;;;;;10.14;63.91;99829.75;5093534;28;818;-49
2021/09/11 01:29:57;;;;;;;;;;;;;;;10.09;64.02;99832.91;5075122;28;1272;-49
2021/09/11 01:32:24;;;;;;;;;;;;;;;10.06;64.24;99834.50;5093421;28;886;-50
2021/09/11 01:34:51;;;;;;;;;;;;;;;10.05;64.39;99835.72;5093407;28;954;-49
2021/09/11 01:37:18;;;;;;;;;;;;;;;10.06;64.28;99842.00;5093326;28;845;-51
2021/09/11 01:39:48;;;;;;;;;;;;;;;10.07;64.08;99843.56;5093303;28;798;-50
2021/09/11 01:42:16;;;;;;;;;;;;;;;10.10;64.22;99851.06;5093094;28;847;-49
2021/09/11 01:44:50;;;;;;;;;;;;;;;10.15;63.99;99842.38;5092975;28;1965;-51
2021/09/11 01:47:17;;;;;;;;;;;;;;;10.23;63.91;99841.16;5093322;28;917;-50
2021/09/11 01:49:44;;;;;;;;;;;;;;;10.30;63.59;99835.66;5093257;28;1060;-52
2021/09/11 01:52:12;;;;;;;;;;;;;;;10.34;63.40;99852.22;5093238;28;853;-50
2021/09/11 01:54:39;;;;;;;;;;;;;;;10.36;63.43;99847.09;5093186;28;877;-49
2021/09/11 01:57:06;;;;;;;;;;;;;;;10.41;63.32;99854.94;5093036;28;936;-50
2021/09/11 01:59:33;;;;;;;;;;;;;;;10.51;62.99;99854.13;5092927;28;817;-49
2021/09/11 02:01:59;;;;;;;;;;;;;;;10.68;62.62;99860.78;5092736;28;973;-53
2021/09/11 02:04:26;;;;;;;;;;;;;;;10.87;61.94;99856.72;5093097;28;1945;-52
2021/09/11 02:06:53;;;;;;;;;;;;;;;10.98;61.63;99851.16;5092964;28;830;-49
2021/09/11 02:09:19;;;;;;;;;;;;;;;11.06;61.21;99849.13;5092903;28;847;-51
2021/09/11 02:11:46;;;;;;;;;;;;;;;11.07;61.39;99854.25;5092983;28;806;-50
2021/09/11 02:14:11;;;;;;;;;;;;;;;11.06;61.11;99849.91;5092459;28;814;-52
2021/09/11 02:16:38;;;;;;;;;;;;;;;10.95;61.30;99840.91;5092983;28;902;-50
2021/09/11 02:19:04;;;;;;;;;;;;;;;10.81;61.83;99848.06;5092555;28;873;-50
2021/09/11 02:21:31;;;;;;;;;;;;;;;10.73;61.91;99851.28;5092469;28;932;-54
2021/09/11 02:23:58;;;;;;;;;;;;;;;10.69;61.95;99845.78;5092391;28;1941;-51
2021/09/11 02:26:24;;;;;;;;;;;;;;;10.65;62.08;99845.00;5092346;28;810;-49
2021/09/11 02:28:52;;;;;;;;;;;;;;;10.62;62.32;99851.31;5092130;28;1213;-52
2021/09/11 02:31:19;;;;;;;;;;;;;;;10.60;62.41;99853.69;5092227;28;1015;-49
2021/09/11 02:33:47;;;;;;;;;;;;;;;10.55;62.57;99845.84;5092264;28;862;-53
2021/09/11 02:36:14;;;;;;;;;;;;;;;10.54;62.82;99853.34;5092212;28;802;-53
2021/09/11 02:38:40;;;;;;;;;;;;;;;10.61;62.37;99855.28;5092191;28;834;-50
2021/09/11 02:41:07;;;;;;;;;;;;;;;10.67;62.57;99855.63;5092285;28;869;-53
2021/09/11 02:43:33;;;;;;;;;;;;;;;10.72;61.88;99858.00;5092396;28;806;-51
2021/09/11 02:46:00;;;;;;;;;;;;;;;10.69;61.92;99859.59;5092289;28;1977;-54
2021/09/11 02:48:27;;;;;;;;;;;;;;;10.61;62.38;99849.75;5091955;28;1028;-50
2021/09/11 02:50:54;;;;;;;;;;;;;;;10.59;62.37;99855.69;5092015;28;795;-53
2021/09/11 02:53:21;;;;;;;;;;;;;;;10.59;62.39;99849.38;5091845;28;858;-54
2021/09/11 02:55:48;;;;;;;;;;;;;;;10.61;62.24;99849.75;5091820;28;794;-53
2021/09/11 02:58:14;;;;;;;;;;;;;;;10.69;62.00;99848.53;5091907;28;889;-53
2021/09/11 03:00:41;;;;;;;;;;;;;;;10.79;61.69;99852.44;5091786;28;894;-51
2021/09/11 03:03:08;;;;;;;;;;;;;;;10.89;61.56;99853.56;5091757;28;811;-53
2021/09/11 03:05:34;;;;;;;;;;;;;;;10.95;61.15;99847.22;5091717;28;1885;-51
2021/09/11 03:08:01;;;;;;;;;;;;;;;11.01;60.88;99853.91;5091686;28;875;-54
2021/09/11 03:10:27;;;;;;;;;;;;;;;11.11;60.42;99854.22;5091683;28;1094;-54
2021/09/11 03:12:53;;;;;;;;;;;;;;;11.17;60.48;99847.06;5091619;28;909;-52
2021/09/11 03:15:21;;;;;;;;;;;;;;;11.18;60.62;99848.63;5091815;28;941;-53
2021/09/11 03:17:47;;;;;;;;;;;;;;;11.12;60.34;99848.31;5091640;28;882;-49
2021/09/11 03:20:14;;;;;;;;;;;;;;;11.02;60.48;99852.69;5091635;28;857;-51
2021/09/11 03:22:41;;;;;;;;;;;;;;;10.96;60.96;99846.00;5091569;28;898;-51
2021/09/11 03:25:07;;;;;;;;;;;;;;;10.89;61.07;99845.28;5091476;28;2252;-50
2021/09/11 03:27:34;;;;;;;;;;;;;;;10.77;61.42;99843.75;5077338;28;869;-51
2021/09/11 03:30:00;;;;;;;;;;;;;;;10.65;62.00;99849.72;5077607;28;1247;-49
2021/09/11 03:32:27;;;;;;;;;;;;;;;10.61;62.14;99841.47;5095748;28;818;-51
2021/09/11 03:34:54;;;;;;;;;;;;;;;10.66;62.11;99849.31;5095648;28;830;-48
2021/09/11 03:37:21;;;;;;;;;;;;;;;10.70;62.17;99847.34;5095660;28;794;-51
2021/09/11 03:39:47;;;;;;;;;;;;;;;10.78;61.70;99857.19;5095654;28;905;-53
2021/09/11 03:42:14;;;;;;;;;;;;;;;10.87;61.31;99847.66;5077474;28;1624;-50
2021/09/11 03:44:41;;;;;;;;;;;;;;;10.96;60.82;99840.47;5077146;28;1901;-53
2021/09/11 03:47:07;;;;;;;;;;;;;;;11.09;60.75;99842.78;5095718;28;810;-51
2021/09/11 03:49:33;;;;;;;;;;;;;;;11.10;60.25;99842.38;5095412;28;802;-49
2021/09/11 03:51:59;;;;;;;;;;;;;;;11.08;60.55;99844.78;5095414;28;1156;-52
2021/09/11 03:54:26;;;;;;;;;;;;;;;11.05;60.72;99848.31;5095259;28;778;-51
2021/09/11 03:56:55;;;;;;;;;;;;;;;11.08;60.77;99841.22;5095324;28;809;-49
2021/09/11 03:59:22;;;;;;;;;;;;;;;11.13;60.34;99844.31;5095083;28;909;-49
2021/09/11 04:01:49;;;;;;;;;;;;;;;11.23;59.88;99840.72;5095386;28;782;-51
2021/09/11 04:04:15;;;;;;;;;;;;;;;11.31;59.89;99847.00;5095063;28;1945;-50
2021/09/11 04:06:41;;;;;;;;;;;;;;;11.37;59.55;99850.09;5095093;28;802;-53
2021/09/11 04:09:08;;;;;;;;;;;;;;;11.35;59.74;99849.72;5095076;28;810;-50
2021/09/11 04:11:35;;;;;;;;;;;;;;;11.39;59.53;99845.75;5094969;28;904;-52
2021/09/11 04:14:01;;;;;;;;;;;;;;;11.41;59.43;99853.63;5094935;28;833;-50
2021/09/11 04:16:28;;;;;;;;;;;;;;;11.39;59.55;99844.94;5095296;28;1044;-54
2021/09/11 04:18:55;;;;;;;;;;;;;;;11.36;59.46;99838.25;5094783;28;1006;-50
2021/09/11 04:21:21;;;;;;;;;;;;;;;11.35;59.71;99847.75;5094929;28;794;-50
2021/09/11 04:23:47;;;;;;;;;;;;;;;11.37;59.37;99850.91;5094598;28;1943;-53
2021/09/11 04:26:14;;;;;;;;;;;;;;;11.40;59.18;99854.81;5094570;28;933;-53
2021/09/11 04:28:41;;;;;;;;;;;;;;;11.40;59.54;99843.75;5094406;28;1385;-53
2021/09/11 04:31:06;;;;;;;;;;;;;;;11.43;59.59;99838.19;5094638;28;799;-54
2021/09/11 04:33:33;;;;;;;;;;;;;;;11.50;59.22;99834.59;5094561;28;897;-52
2021/09/11 04:35:59;;;;;;;;;;;;;;;11.56;59.25;99830.16;5094539;28;940;-54
2021/09/11 04:38:27;;;;;;;;;;;;;;;11.64;59.08;99834.44;5094297;28;997;-54
2021/09/11 04:40:54;;;;;;;;;;;;;;;11.74;58.50;99838.34;5094393;28;858;-52
2021/09/11 04:43:21;;;;;;;;;;;;;;;11.87;58.45;99841.38;5094438;28;881;-51
2021/09/11 04:45:48;;;;;;;;;;;;;;;12.02;58.07;99839.28;5076417;28;1918;-54
2021/09/11 04:48:16;;;;;;;;;;;;;;;12.20;57.52;99842.63;5076048;28;1294;-54
2021/09/11 04:50:43;;;;;;;;;;;;;;;12.42;57.08;99839.66;5094376;28;846;-54
2021/09/11 04:53:10;;;;;;;;;;;;;;;12.72;56.22;99838.09;5094077;28;897;-53
2021/09/11 04:55:36;;;;;;;;;;;;;;;12.95;55.53;99840.13;5094172;28;810;-54
2021/09/11 04:58:03;;;;;;;;;;;;;;;13.16;54.94;99845.38;5094355;28;814;-53
2021/09/11 05:00:29;;;;;;;;;;;;;;;13.31;54.57;99845.97;5094168;28;787;-54
2021/09/11 05:02:58;;;;;;;;;;;;;;;13.48;54.39;99846.91;5094026;28;849;-52
2021/09/11 05:05:25;;;;;;;;;;;;;;;13.62;53.96;99848.69;5093941;28;1950;-55
2021/09/11 05:07:55;;;;;;;;;;;;;;;13.70;53.39;99850.13;5094187;28;806;-54
2021/09/11 05:18:42;;;;;;;;;;;;;;;14.37;52.11;99843.75;5053667;28;691;-55
2021/09/11 05:21:08;;;;;;;;;;;;;;;14.58;51.58;99848.91;5053506;28;919;-55
2021/09/11 05:23:35;;;;;;;;;;;;;;;14.74;51.21;99842.59;5053457;28;927;-56
2021/09/11 05:26:03;;;;;;;;;;;;;;;14.94;50.90;99850.16;5053304;28;1913;-55
2021/09/11 05:28:30;;;;;;;;;;;;;;;15.18;50.21;99850.81;5053380;28;846;-55
2021/09/11 05:30:56;;;;;;;;;;;;;;;15.47;49.66;99850.94;5053295;28;869;-56
2021/09/11 05:33:23;;;;;;;;;;;;;;;15.86;48.72;99844.38;5053256;28;897;-53
2021/09/11 05:35:49;;;;;;;;;;;;;;;16.19;48.50;99843.53;5053223;28;814;-56
2021/09/11 05:38:16;;;;;;;;;;;;;;;16.58;47.42;99841.63;5053118;28;1033;-56
2021/09/11 05:40:43;;;;;;;;;;;;;;;17.06;46.58;99837.06;5053175;28;814;-55
2021/09/11 05:43:09;;;;;;;;;;;;;;;17.39;45.47;99834.81;5053049;28;809;-56
2021/09/11 05:45:36;;;;;;;;;;;;;;;17.75;45.12;99833.63;5052800;28;1894;-56
2021/09/11 05:48:02;;;;;;;;;;;;;;;18.18;44.06;99829.38;5051376;28;850;-54
2021/09/11 05:50:29;;;;;;;;;;;;;;;18.64;43.61;99834.50;5052601;28;932;-55
2021/09/11 05:52:56;;;;;;;;;;;;;;;19.36;40.95;99824.91;5052773;28;930;-57
2021/09/11 05:55:22;;;;;;;;;;;;;;;20.09;39.64;99825.50;5052821;28;877;-56
2021/09/11 05:57:49;;;;;;;;;;;;;;;20.73;36.16;99824.69;5052747;28;954;-56
2021/09/11 06:00:15;;;;;;;;;;;;;;;21.34;34.13;99816.94;5052712;28;932;-57
2021/09/11 06:02:42;;;;;;;;;;;;;;;21.50;33.93;99812.97;5052707;28;893;-56
2021/09/11 06:05:09;;;;;;;;;;;;;;;21.59;33.71;99806.50;5052627;28;1957;-56
2021/09/11 06:07:40;;;;;;;;;;;;;;;21.75;33.42;99813.75;5052738;28;861;-55
2021/09/11 06:10:06;;;;;;;;;;;;;;;21.95;33.35;99808.28;5052479;28;920;-56
2021/09/11 06:12:33;;;;;;;;;;;;;;;22.29;32.94;99802.56;5052536;28;876;-57
2021/09/11 06:14:59;;;;;;;;;;;;;;;22.71;32.12;99798.69;5052275;28;806;-57
2021/09/11 06:17:26;;;;;;;;;;;;;;;22.77;31.46;99805.19;5076433;28;1375;-56
2021/09/11 06:19:56;;;;;;;;;;;;;;;22.71;31.65;99805.09;5092691;28;889;-57
2021/09/11 06:22:23;;;;;;;;;;;;;;;22.89;30.97;99792.03;5092381;28;846;-57
2021/09/11 06:24:49;;;;;;;;;;;;;;;23.07;31.30;99791.09;5092624;28;1915;-57
2021/09/11 06:27:19;;;;;;;;;;;;;;;23.13;31.10;99798.34;5092482;28;809;-57
2021/09/11 06:29:46;;;;;;;;;;;;;;;23.48;30.57;99783.47;5092282;28;893;-57
2021/09/11 06:32:13;;;;;;;;;;;;;;;23.65;30.52;99790.09;5092334;28;794;-57
2021/09/11 06:46:52;;;;;;;;;;;;;;;25.01;27.58;99786.59;5092413;28;617;-57
2021/09/11 06:49:19;;;;;;;;;;;;;;;25.13;28.02;99781.78;5092029;28;889;-57
2021/09/11 06:51:45;;;;;;;;;;;;;;;25.64;27.51;99773.59;5092004;28;834;-57
2021/09/11 06:54:12;;;;;;;;;;;;;;;25.74;26.42;99783.41;5091831;28;878;-57
2021/09/11 06:56:39;;;;;;;;;;;;;;;25.49;26.88;99782.28;5091872;28;990;-56
2021/09/11 06:59:07;;;;;;;;;;;;;;;25.35;27.17;99771.91;5091977;28;567;-57
2021/09/11 07:01:39;;;;;;;;;;;;;;;25.52;27.26;99780.47;5091989;28;918;-57
2021/09/11 07:04:35;;;;;;;;;;;;;;;25.84;26.92;99778.31;5091793;28;1954;-57
2021/09/11 07:19:20;;;;;;;;;;;;;;;25.78;27.99;99792.44;5087265;28;1813;-58
2021/09/11 07:21:47;;;;;;;;;;;;;;;26.22;26.88;99791.06;5091706;28;822;-58
2021/09/11 07:36:25;;;;;;;;;;;;;;;26.14;27.09;99809.06;5091858;28;619;-58
2021/09/11 07:38:51;;;;;;;;;;;;;;;26.60;27.42;99811.47;5091539;28;821;-58
2021/09/11 07:41:18;;;;;;;;;;;;;;;26.79;27.12;99811.75;5091475;28;857;-58
2021/09/11 07:46:47;;;;;;;;;;;;;;;27.22;26.67;99802.19;5091450;28;612;-58
2021/09/11 07:49:13;;;;;;;;;;;;;;;27.72;25.28;99806.97;5091339;28;893;-58
2021/09/11 07:51:40;;;;;;;;;;;;;;;27.52;25.80;99812.97;5091642;28;810;-58
2021/09/11 07:54:06;;;;;;;;;;;;;;;27.68;25.81;99812.91;5091389;28;813;-58
2021/09/11 07:56:33;;;;;;;;;;;;;;;27.71;24.65;99811.09;5091345;28;995;-58
2021/09/11 07:59:00;;;;;;;;;;;;;;;27.63;25.20;99808.03;5091273;28;847;-58
2021/09/11 08:01:26;;;;;;;;;;;;;;;27.90;24.77;99803.53;5091187;28;890;-58
2021/09/11 08:03:52;;;;;;;;;;;;;;;27.94;23.95;99806.13;5091543;28;814;-58
2021/09/11 08:06:19;;;;;;;;;;;;;;;28.15;24.30;99811.44;5091177;28;925;-58
2021/09/11 08:08:45;;;;;;;;;;;;;;;28.31;23.85;99802.03;5091046;28;846;-58
2021/09/11 08:11:15;;;;;;;;;;;;;;;28.17;22.97;99808.84;5091109;28;932;-58
2021/09/11 08:13:42;;;;;;;;;;;;;;;28.32;23.23;99808.50;5094708;28;945;-58
2021/09/11 08:16:09;;;;;;;;;;;;;;;28.12;23.39;99813.25;5095037;28;925;-57
2021/09/11 08:18:35;;;;;;;;;;;;;;;28.19;23.58;99800.56;5094590;28;1409;-58
2021/09/11 08:21:03;;;;;;;;;;;;;;;28.58;23.85;99808.09;5094852;28;845;-58
2021/09/11 08:23:30;;;;;;;;;;;;;;;28.55;22.65;99807.09;5094736;28;830;-58
2021/09/11 08:25:56;;;;;;;;;;;;;;;28.26;22.71;99803.63;5076534;28;1910;-57
2021/09/11 08:28:23;;;;;;;;;;;;;;;28.24;23.68;99803.38;5094703;28;817;-58
2021/09/11 08:30:49;;;;;;;;;;;;;;;28.39;23.19;99802.25;5094710;28;912;-58
2021/09/11 08:33:16;;;;;;;;;;;;;;;28.74;23.07;99804.31;5094576;28;1197;-58
2021/09/11 08:35:43;;;;;;;;;;;;;;;28.94;22.86;99805.22;5094482;28;917;-58
2021/09/11 08:38:10;;;;;;;;;;;;;;;28.88;23.06;99806.03;5094542;28;858;-57
2021/09/11 08:40:37;;;;;;;;;;;;;;;29.10;23.03;99792.91;5094448;28;923;-57
2021/09/11 08:43:04;;;;;;;;;;;;;;;29.09;22.89;99797.03;5094375;28;810;-57
2021/09/11 08:45:31;;;;;;;;;;;;;;;29.07;22.25;99780.50;5094315;28;1929;-57
2021/09/11 08:47:58;;;;;;;;;;;;;;;28.48;23.29;99797.03;5094299;28;822;-57
2021/09/11 08:50:24;;;;;;;;;;;;;;;28.41;23.38;99796.81;5094238;28;850;-56
2021/09/11 08:52:53;;;;;;;;;;;;;;;28.27;23.60;99790.16;5094485;28;818;-57
2021/09/11 08:55:20;;;;;;;;;;;;;;;28.12;23.98;99793.34;5094165;28;868;-57
2021/09/11 08:58:00;;;;;;;;;;;;;;;28.13;24.15;99775.03;5076256;28;912;-57
2021/09/11 09:00:45;;;;;;;;;;;;;;;27.85;24.25;99780.84;5094042;28;929;-57
2021/09/11 09:03:31;;;;;;;;;;;;;;;28.41;23.80;99789.03;5094086;28;859;-57
2021/09/11 09:06:17;;;;;;;;;;;;;;;28.48;24.13;99768.59;5094158;28;1885;-57
2021/09/11 09:08:44;;;;;;;;;;;;;;;28.39;24.34;99765.31;5075817;28;1311;-58
2021/09/11 09:11:17;;;;;;;;;;;;;;;28.45;23.82;99768.88;5094167;28;859;-57
2021/09/11 09:13:54;;;;;;;;;;;;;;;28.43;23.61;99760.09;5094022;28;845;-57
2021/09/11 09:16:21;;;;;;;;;;;;;;;28.23;23.86;99758.41;5093873;28;941;-57
2021/09/11 09:18:48;;;;;;;;;;;;;;;27.96;23.83;99755.25;5093466;28;1327;-57
2021/09/11 09:24:34;;;;;;;;;;;;;;;27.74;23.90;99747.59;5092558;28;1972;-58
2021/09/11 09:27:03;;;;;;;;;;;;;;;27.86;24.35;99757.59;5093455;28;897;-57
2021/09/11 09:29:33;;;;;;;;;;;;;;;27.85;23.97;99750.41;5093635;28;896;-57
2021/09/11 09:32:00;;;;;;;;;;;;;;;27.95;23.90;99750.06;5093546;28;821;-57
2021/09/11 09:34:53;;;;;;;;;;;;;;;27.86;23.57;99739.81;5093764;28;865;-57
2021/09/11 09:37:20;;;;;;;;;;;;;;;27.82;24.31;99754.25;5090065;28;1707;-57
2021/09/11 09:39:48;;;;;;;;;;;;;;;27.64;23.42;99749.94;5093372;28;826;-57
2021/09/11 09:42:16;;;;;;;;;;;;;;;27.27;24.34;99747.53;5093207;28;1054;-57
2021/09/11 09:44:42;;;;;;;;;;;;;;;27.19;24.53;99749.31;5093185;28;1936;-57
2021/09/11 09:47:18;;;;;;;;;;;;;;;27.43;24.69;99738.16;5093148;28;910;-57
2021/09/11 09:52:49;;;;;;;;;;;;;;;27.57;24.31;99739.16;5093489;28;596;-57
2021/09/11 09:55:16;;;;;;;;;;;;;;;27.76;24.29;99747.06;5092936;28;902;-57
2021/09/11 09:57:43;;;;;;;;;;;;;;;27.86;24.30;99734.13;5092970;28;904;-57
2021/09/11 10:00:09;;;;;;;;;;;;;;;28.08;23.44;99741.75;5092872;28;929;-57
2021/09/11 10:02:37;;;;;;;;;;;;;;;28.40;23.61;99744.09;5092874;28;873;-57
2021/09/11 10:05:04;;;;;;;;;;;;;;;28.60;23.53;99738.03;5093237;28;1983;-57
2021/09/11 10:07:31;;;;;;;;;;;;;;;29.05;23.31;99729.06;5093045;28;887;-57
2021/09/11 10:09:58;;;;;;;;;;;;;;;29.44;21.62;99732.78;5092834;28;893;-57
2021/09/11 10:12:35;;;;;;;;;;;;;;;29.21;22.30;99737.97;5092534;28;893;-58
2021/09/11 10:15:20;;;;;;;;;;;;;;;28.87;22.78;99732.63;5092729;28;822;-57
2021/09/11 10:17:48;;;;;;;;;;;;;;;28.88;22.04;99737.75;5092389;28;1362;-58
2021/09/11 10:36:02;;;;;;;;;;;;;;;29.37;21.80;99739.09;5092308;28;676;-57
2021/09/11 10:38:41;;;;;;;;;;;;;;;29.16;22.08;99739.56;5092270;28;830;-57
2021/09/11 10:41:11;;;;;;;;;;;;;;;29.14;22.41;99730.03;5092366;28;802;-57
2021/09/11 10:43:38;;;;;;;;;;;;;;;29.04;21.85;99733.22;5092018;28;869;-57
2021/09/11 10:46:09;;;;;;;;;;;;;;;28.85;21.97;99726.69;5091973;28;1906;-57
2021/09/11 10:48:48;;;;;;;;;;;;;;;28.91;22.63;99738.75;5091936;28;877;-57
2021/09/11 10:51:17;;;;;;;;;;;;;;;29.09;22.12;99735.25;5092049;28;838;-57
2021/09/11 10:54:04;;;;;;;;;;;;;;;29.44;22.39;99733.53;5092214;28;873;-57
2021/09/11 10:56:34;;;;;;;;;;;;;;;29.66;21.78;99718.28;5092226;28;830;-57
2021/09/11 10:59:16;;;;;;;;;;;;;;;29.62;21.92;99714.97;5092014;28;981;-57
2021/09/11 11:01:55;;;;;;;;;;;;;;;29.96;21.88;99713.72;5091751;28;925;-58
2021/09/11 11:04:29;;;;;;;;;;;;;;;30.57;21.42;99709.16;5091697;28;1886;-58
2021/09/11 11:06:57;;;;;;;;;;;;;;;30.50;21.36;99704.09;5091700;28;865;-57
2021/09/11 11:09:24;;;;;;;;;;;;;;;30.20;21.55;99699.38;5091847;28;872;-57
2021/09/11 11:11:52;;;;;;;;;;;;;;;29.86;22.00;99705.59;5091663;28;842;-57
2021/09/11 11:14:18;;;;;;;;;;;;;;;29.95;21.46;99700.81;5091664;28;903;-54
2021/09/11 11:16:46;;;;;;;;;;;;;;;30.10;21.61;99709.63;5091804;28;954;-56
2021/09/11 11:19:33;;;;;;;;;;;;;;;29.71;20.98;99700.34;5091453;28;1235;-57
2021/09/11 11:21:59;;;;;;;;;;;;;;;29.28;21.67;99703.22;5091494;28;1239;-58
2021/09/11 11:24:30;;;;;;;;;;;;;;;29.30;21.86;99712.00;5073391;28;1965;-57
2021/09/11 11:27:00;;;;;;;;;;;;;;;29.39;21.51;99708.00;5091552;28;973;-56
2021/09/11 11:29:28;;;;;;;;;;;;;;;29.56;21.35;99696.41;5073713;28;1419;-57
2021/09/11 11:44:25;;;;;;;;;;;;;;;30.50;20.24;99678.44;5091489;28;1967;-57
2021/09/11 11:46:55;;;;;;;;;;;;;;;30.40;20.55;99678.06;5092335;28;833;-57
2021/09/11 11:49:22;;;;;;;;;;;;;;;30.63;20.27;99669.91;5095477;28;806;-57
2021/09/11 11:51:52;;;;;;;;;;;;;;;30.95;19.87;99662.59;5095397;28;952;-57
2021/09/11 12:06:29;;;;;;;;;;;;;;;31.30;20.62;99652.78;5095431;28;631;-56
2021/09/11 12:09:04;;;;;;;;;;;;;;;31.74;20.43;99656.00;5095157;28;873;-56
2021/09/11 12:11:30;;;;;;;;;;;;;;;31.72;20.57;99658.66;5094936;28;1251;-58
2021/09/11 12:13:59;;;;;;;;;;;;;;;31.79;19.92;99652.25;5095066;28;885;-58
2021/09/11 12:16:26;;;;;;;;;;;;;;;32.27;19.79;99643.59;5095008;28;1000;-55
2021/09/11 12:18:52;;;;;;;;;;;;;;;32.17;20.17;99646.16;5094779;28;1208;-54
2021/09/11 12:21:19;;;;;;;;;;;;;;;32.10;20.06;99638.31;5094854;28;815;-57
2021/09/11 12:23:47;;;;;;;;;;;;;;;31.70;19.95;99649.88;5094718;28;878;-58
2021/09/11 12:26:17;;;;;;;;;;;;;;;31.87;19.84;99626.63;5076566;28;1966;-58
2021/09/11 12:28:47;;;;;;;;;;;;;;;32.22;19.77;99625.25;5094646;28;847;-57
2021/09/11 12:31:21;;;;;;;;;;;;;;;31.69;19.86;99637.69;5094614;28;1249;-56
2021/09/11 12:33:59;;;;;;;;;;;;;;;31.75;19.27;99623.28;5094557;28;846;-57
2021/09/11 12:36:28;;;;;;;;;;;;;;;31.77;19.22;99626.31;5094555;28;1052;-55
2021/09/11 12:51:06;;;;;;;;;;;;;;;31.87;19.61;99613.09;5094724;28;611;-55
2021/09/11 12:53:34;;;;;;;;;;;;;;;32.17;19.57;99616.81;5094334;28;825;-55
2021/09/11 12:56:00;;;;;;;;;;;;;;;32.50;18.99;99606.59;5094136;28;941;-55
2021/09/11 12:58:28;;;;;;;;;;;;;;;32.93;18.57;99605.94;5094093;28;818;-55
2021/09/11 13:00:58;;;;;;;;;;;;;;;33.29;18.09;99596.56;5093978;28;890;-54
2021/09/11 13:03:28;;;;;;;;;;;;;;;33.80;17.83;99603.59;5076119;28;1003;-54
2021/09/11 13:05:54;;;;;;;;;;;;;;;34.18;17.50;99585.66;5093870;28;1890;-54
2021/09/11 13:08:21;;;;;;;;;;;;;;;33.82;17.71;99605.88;5093915;28;876;-55
2021/09/11 13:10:50;;;;;;;;;;;;;;;33.42;17.93;99603.50;5093980;28;849;-54
2021/09/11 13:13:17;;;;;;;;;;;;;;;33.05;18.34;99606.38;5093843;28;989;-54
2021/09/11 13:15:44;;;;;;;;;;;;;;;32.63;18.58;99594.31;5093856;28;887;-55
2021/09/11 13:18:10;;;;;;;;;;;;;;;32.24;19.21;99598.94;5093504;28;1244;-54
2021/09/11 13:20:37;;;;;;;;;;;;;;;32.18;18.55;99595.47;5093796;28;830;-54
2021/09/11 13:23:04;;;;;;;;;;;;;;;31.75;18.90;99594.72;5093641;28;802;-54
2021/09/11 13:25:38;;;;;;;;;;;;;;;31.38;19.62;99592.94;5075965;28;1910;-54
2021/09/11 13:28:05;;;;;;;;;;;;;;;31.36;20.24;99587.78;5093994;28;763;-54
2021/09/11 13:30:32;;;;;;;;;;;;;;;31.51;19.69;99585.09;5093639;28;1283;-54
2021/09/11 13:32:58;;;;;;;;;;;;;;;31.66;19.30;99581.66;5093768;28;870;-54
2021/09/11 13:35:24;;;;;;;;;;;;;;;31.89;19.42;99581.09;5075380;28;878;-55
2021/09/11 13:37:50;;;;;;;;;;;;;;;31.90;19.48;99576.91;5093649;28;806;-54
2021/09/11 13:40:17;;;;;;;;;;;;;;;31.64;19.17;99577.81;5093343;28;865;-55
2021/09/11 13:42:44;;;;;;;;;;;;;;;31.44;19.46;99585.81;5075204;28;1183;-55
2021/09/11 13:45:10;;;;;;;;;;;;;;;31.37;19.72;99579.97;5093161;28;1890;-57
2021/09/11 13:47:37;;;;;;;;;;;;;;;31.73;19.60;99575.25;5093238;28;798;-57
2021/09/11 13:50:04;;;;;;;;;;;;;;;32.11;18.88;99574.06;5093043;28;909;-56
2021/09/11 13:52:30;;;;;;;;;;;;;;;31.97;19.35;99575.47;5093094;28;893;-57
2021/09/11 13:54:56;;;;;;;;;;;;;;;32.02;19.25;99569.63;5092954;28;906;-56
2021/09/11 13:57:23;;;;;;;;;;;;;;;32.01;19.15;99588.09;5092937;28;946;-54
2021/09/11 13:59:49;;;;;;;;;;;;;;;31.65;19.37;99576.50;5092970;28;852;-55
2021/09/11 14:02:16;;;;;;;;;;;;;;;31.49;19.99;99581.28;5092930;28;810;-54
2021/09/11 14:04:43;;;;;;;;;;;;;;;31.43;20.26;99586.34;5093117;28;1955;-55
2021/09/11 14:07:10;;;;;;;;;;;;;;;30.92;19.81;99590.28;5092634;28;871;-54
2021/09/11 14:09:37;;;;;;;;;;;;;;;30.59;20.59;99592.44;5092230;28;837;-54
2021/09/11 14:12:04;;;;;;;;;;;;;;;30.24;21.14;99587.91;5092760;28;834;-54
2021/09/11 14:14:30;;;;;;;;;;;;;;;29.54;21.84;99590.84;5092936;28;889;-53
2021/09/11 14:16:57;;;;;;;;;;;;;;;28.86;22.85;99600.22;5092950;28;1000;-53
2021/09/11 14:19:24;;;;;;;;;;;;;;;28.30;24.22;99608.03;5092317;28;1929;-53
2021/09/11 14:21:50;;;;;;;;;;;;;;;27.80;25.45;99612.06;5092602;28;798;-53
2021/09/11 14:24:17;;;;;;;;;;;;;;;27.35;26.74;99611.53;5092458;28;1906;-54
2021/09/11 14:26:43;;;;;;;;;;;;;;;26.91;27.74;99608.38;5092431;28;885;-56
2021/09/11 14:29:10;;;;;;;;;;;;;;;26.63;28.38;99611.31;5092483;28;814;-56
2021/09/11 14:31:36;;;;;;;;;;;;;;;26.48;28.48;99608.72;5092427;28;912;-56
2021/09/11 14:34:03;;;;;;;;;;;;;;;26.63;28.32;99611.31;5092338;28;873;-57
2021/09/11 14:36:30;;;;;;;;;;;;;;;26.83;28.02;99613.03;5092137;28;842;-57
2021/09/11 14:38:57;;;;;;;;;;;;;;;27.02;27.10;99607.56;5092481;28;1039;-57
2021/09/11 14:41:24;;;;;;;;;;;;;;;26.83;27.42;99601.69;5092226;28;857;-56
2021/09/11 14:43:51;;;;;;;;;;;;;;;26.58;27.42;99621.34;5092232;28;850;-57
2021/09/11 14:46:17;;;;;;;;;;;;;;;26.37;27.50;99614.38;5092089;28;1881;-56
2021/09/11 14:48:44;;;;;;;;;;;;;;;26.24;27.71;99612.88;5092131;28;869;-57
2021/09/11 14:51:10;;;;;;;;;;;;;;;26.12;28.36;99610.53;5073922;28;925;-56
2021/09/11 14:53:37;;;;;;;;;;;;;;;25.95;28.82;99613.41;5092054;28;881;-57
2021/09/11 14:56:04;;;;;;;;;;;;;;;25.85;28.75;99616.44;5092046;28;818;-57